createdAt,value
2022-08-26T00:01:52.211Z,20.86
2022-08-26T00:04:18.966Z,20.85
2022-08-26T00:06:46.062Z,20.79
2022-08-26T00:09:16.238Z,20.76
2022-08-26T00:11:44.433Z,20.73
2022-08-26T00:14:11.749Z,20.71
2022-08-26T00:16:40.887Z,20.63
2022-08-26T00:19:08.274Z,20.57
2022-08-26T00:21:35.543Z,20.55
2022-08-26T00:24:04.457Z,20.52
2022-08-26T00:26:30.949Z,20.44
2022-08-26T00:28:57.346Z,20.48
2022-08-26T00:31:23.785Z,20.51
2022-08-26T00:33:50.292Z,20.46
2022-08-26T00:36:20.224Z,20.45
2022-08-26T00:38:47.488Z,20.44
2022-08-26T00:41:13.986Z,20.32
2022-08-26T00:43:47.511Z,20.35
2022-08-26T00:46:19.574Z,20.33
2022-08-26T00:48:49.982Z,20.24
2022-08-26T00:51:20.505Z,20.22
2022-08-26T00:53:57.630Z,20.26
2022-08-26T00:56:56.514Z,20.33
2022-08-26T00:59:24.246Z,20.31
2022-08-26T01:01:51.604Z,20.20
2022-08-26T01:04:22.457Z,20.21
2022-08-26T01:06:52.794Z,20.17
2022-08-26T01:09:21.157Z,20.04
2022-08-26T01:11:50.934Z,19.95
2022-08-26T01:14:19.268Z,19.93
2022-08-26T01:16:47.752Z,19.97
2022-08-26T01:19:26.785Z,19.98
2022-08-26T01:22:01.600Z,20.01
2022-08-26T01:24:30.118Z,19.95
2022-08-26T01:27:01.510Z,19.78
2022-08-26T01:29:29.206Z,19.82
2022-08-26T01:31:57.564Z,19.83
2022-08-26T01:34:27.594Z,19.85
2022-08-26T01:37:02.780Z,19.81
2022-08-26T01:39:31.921Z,19.76
2022-08-26T01:42:03.123Z,19.83
2022-08-26T01:44:36.262Z,19.58
2022-08-26T01:47:06.410Z,19.69
2022-08-26T01:49:35.340Z,19.67
2022-08-26T01:52:03.415Z,19.61
2022-08-26T01:54:31.528Z,19.59
2022-08-26T01:57:00.244Z,19.63
2022-08-26T01:59:27.039Z,19.60
2022-08-26T02:01:53.730Z,19.58
2022-08-26T02:04:48.686Z,19.51
2022-08-26T02:07:20.486Z,19.48
2022-08-26T02:09:48.422Z,19.53
2022-08-26T02:12:18.115Z,19.45
2022-08-26T02:14:50.200Z,19.39
2022-08-26T02:17:21.652Z,19.45
2022-08-26T02:19:50.420Z,19.41
2022-08-26T02:22:20.799Z,19.48
2022-08-26T02:24:54.945Z,19.43
2022-08-26T02:27:32.300Z,19.45
2022-08-26T02:30:26.311Z,19.33
2022-08-26T02:32:55.271Z,19.25
2022-08-26T02:35:23.876Z,19.22
2022-08-26T02:37:52.430Z,19.25
2022-08-26T02:40:23.507Z,19.26
2022-08-26T02:42:50.175Z,19.18
2022-08-26T02:45:23.101Z,19.20
2022-08-26T02:47:51.024Z,19.26
2022-08-26T02:50:17.578Z,19.18
2022-08-26T02:52:44.108Z,19.08
2022-08-26T02:55:10.648Z,19.03
2022-08-26T02:57:37.382Z,18.98
2022-08-26T03:00:08.470Z,18.92
2022-08-26T03:02:34.901Z,18.81
2022-08-26T03:05:02.229Z,18.98
2022-08-26T03:07:30.131Z,19.05
2022-08-26T03:09:57.212Z,18.87
2022-08-26T03:12:23.921Z,18.86
2022-08-26T03:14:52.118Z,18.91
2022-08-26T03:17:18.685Z,18.85
2022-08-26T03:19:45.108Z,18.94
2022-08-26T03:22:11.952Z,18.88
2022-08-26T03:24:41.046Z,18.95
2022-08-26T03:27:10.860Z,18.93
2022-08-26T03:29:56.820Z,18.96
2022-08-26T03:32:23.740Z,18.88
2022-08-26T03:34:53.492Z,18.82
2022-08-26T03:37:20.793Z,18.87
2022-08-26T03:39:47.866Z,18.83
2022-08-26T03:42:15.009Z,18.82
2022-08-26T03:44:42.103Z,18.78
2022-08-26T03:47:09.390Z,18.81
2022-08-26T03:49:36.092Z,18.77
2022-08-26T03:52:03.984Z,18.77
2022-08-26T03:54:30.454Z,18.76
2022-08-26T03:56:56.821Z,18.70
2022-08-26T03:59:23.404Z,18.74
2022-08-26T04:01:51.246Z,18.66
2022-08-26T04:04:18.125Z,18.56
2022-08-26T04:06:50.071Z,18.29
2022-08-26T04:09:20.907Z,18.52
2022-08-26T04:11:50.653Z,18.59
2022-08-26T04:14:20.671Z,18.65
2022-08-26T04:16:47.756Z,18.67
2022-08-26T04:19:15.568Z,18.70
2022-08-26T04:21:42.321Z,18.68
2022-08-26T04:24:11.883Z,18.62
2022-08-26T04:26:42.878Z,18.62
2022-08-26T04:29:14.489Z,18.65
2022-08-26T04:31:41.215Z,18.61
2022-08-26T04:34:08.056Z,18.58
2022-08-26T04:36:37.663Z,18.58
2022-08-26T04:39:05.142Z,18.56
2022-08-26T04:41:31.876Z,18.59
2022-08-26T04:43:58.556Z,18.45
2022-08-26T04:46:25.667Z,18.54
2022-08-26T04:48:53.593Z,18.63
2022-08-26T04:51:23.632Z,18.36
2022-08-26T04:53:50.020Z,18.32
2022-08-26T04:56:16.647Z,18.44
2022-08-26T04:58:43.304Z,18.59
2022-08-26T05:01:09.672Z,18.45
2022-08-26T05:03:36.931Z,18.33
2022-08-26T05:06:05.172Z,18.52
2022-08-26T05:08:31.628Z,18.60
2022-08-26T05:10:58.178Z,18.52
2022-08-26T05:13:27.247Z,18.64
2022-08-26T05:15:54.616Z,18.64
2022-08-26T05:18:29.904Z,18.57
2022-08-26T05:20:57.352Z,18.58
2022-08-26T05:23:24.593Z,18.67
2022-08-26T05:25:58.399Z,18.63
2022-08-26T05:28:26.927Z,18.62
2022-08-26T05:30:54.822Z,18.57
2022-08-26T05:33:21.918Z,18.66
2022-08-26T05:35:48.478Z,18.68
2022-08-26T05:38:17.341Z,18.69
2022-08-26T05:40:48.981Z,18.57
2022-08-26T05:43:20.030Z,18.63
2022-08-26T05:45:49.720Z,18.62
2022-08-26T05:48:18.720Z,18.63
2022-08-26T05:50:52.321Z,18.76
2022-08-26T05:53:20.864Z,18.84
2022-08-26T05:55:52.343Z,18.73
2022-08-26T05:58:21.412Z,18.85
2022-08-26T06:00:59.850Z,18.77
2022-08-26T06:03:26.522Z,18.76
2022-08-26T06:05:53.391Z,19.05
2022-08-26T06:08:21.127Z,19.01
2022-08-26T06:10:51.330Z,19.05
2022-08-26T06:13:23.915Z,19.20
2022-08-26T06:15:51.522Z,19.34
2022-08-26T06:18:21.862Z,19.30
2022-08-26T06:20:57.174Z,19.48
2022-08-26T06:23:44.176Z,19.58
2022-08-26T06:26:11.839Z,19.66
2022-08-26T06:28:38.365Z,19.80
2022-08-26T06:31:06.030Z,19.95
2022-08-26T06:33:33.144Z,20.04
2022-08-26T06:36:00.997Z,20.12
2022-08-26T06:38:27.576Z,20.21
2022-08-26T06:40:59.708Z,20.40
2022-08-26T06:43:28.029Z,20.54
2022-08-26T06:46:07.586Z,20.64
2022-08-26T06:48:36.260Z,20.72
2022-08-26T06:51:05.983Z,20.83
2022-08-26T06:53:32.608Z,20.92
2022-08-26T06:55:58.989Z,20.98
2022-08-26T06:58:25.512Z,20.99
2022-08-26T07:00:52.179Z,21.10
2022-08-26T07:03:18.918Z,21.14
2022-08-26T07:05:45.379Z,21.18
2022-08-26T07:08:11.851Z,21.28
2022-08-26T07:10:38.836Z,21.32
2022-08-26T07:13:05.993Z,21.36
2022-08-26T07:15:36.090Z,21.42
2022-08-26T07:18:02.943Z,21.41
2022-08-26T07:20:29.435Z,21.44
2022-08-26T07:22:55.992Z,21.51
2022-08-26T07:25:22.428Z,21.57
2022-08-26T07:27:54.514Z,21.63
2022-08-26T07:30:21.087Z,21.61
2022-08-26T07:32:48.173Z,21.64
2022-08-26T07:35:14.739Z,21.68
2022-08-26T07:37:42.153Z,21.70
2022-08-26T07:40:09.441Z,21.78
2022-08-26T07:42:35.882Z,21.84
2022-08-26T07:45:02.317Z,21.91
2022-08-26T07:47:28.964Z,21.91
2022-08-26T07:49:57.248Z,21.93
2022-08-26T07:52:29.177Z,21.97
2022-08-26T07:54:58.020Z,22.03
2022-08-26T07:57:26.146Z,22.09
2022-08-26T07:59:55.132Z,22.11
2022-08-26T08:02:22.983Z,22.21
2022-08-26T08:04:49.593Z,22.25
2022-08-26T08:07:16.496Z,22.37
2022-08-26T08:09:42.968Z,22.48
2022-08-26T08:12:09.443Z,22.52
2022-08-26T08:14:40.733Z,22.61
2022-08-26T08:17:08.225Z,22.75
2022-08-26T08:19:36.762Z,22.88
2022-08-26T08:22:17.500Z,22.92
2022-08-26T08:24:44.731Z,23.05
2022-08-26T08:27:11.166Z,23.11
2022-08-26T08:29:38.569Z,23.19
2022-08-26T08:32:05.553Z,23.29
2022-08-26T08:34:37.906Z,23.35
2022-08-26T08:37:08.591Z,23.40
2022-08-26T08:39:36.990Z,23.42
2022-08-26T08:42:41.904Z,23.50
2022-08-26T08:45:11.898Z,23.56
2022-08-26T08:47:51.674Z,23.66
2022-08-26T08:50:30.334Z,23.80
2022-08-26T08:53:31.640Z,23.96
2022-08-26T08:56:24.335Z,24.03
2022-08-26T08:59:17.785Z,24.13
2022-08-26T09:02:03.340Z,24.23
2022-08-26T09:04:46.796Z,24.32
2022-08-26T09:07:18.539Z,24.40
2022-08-26T09:09:50.571Z,24.51
2022-08-26T09:12:28.334Z,24.59
2022-08-26T09:15:20.320Z,24.72
2022-08-26T09:18:00.104Z,24.81
2022-08-26T09:20:41.735Z,24.90
2022-08-26T09:23:12.420Z,24.99
2022-08-26T09:25:51.584Z,25.09
2022-08-26T09:28:22.217Z,25.18
2022-08-26T09:31:01.716Z,25.30
2022-08-26T09:33:32.707Z,25.28
2022-08-26T09:36:18.702Z,25.27
2022-08-26T09:38:45.952Z,25.16
2022-08-26T09:41:31.803Z,25.05
2022-08-26T09:44:04.086Z,25.06
2022-08-26T09:46:32.018Z,25.20
2022-08-26T09:49:32.692Z,25.34
2022-08-26T09:52:20.463Z,25.49
2022-08-26T09:55:06.925Z,25.62
2022-08-26T09:57:46.510Z,25.70
2022-08-26T10:00:33.404Z,25.82
2022-08-26T10:03:02.774Z,25.93
2022-08-26T10:05:31.668Z,26.04
2022-08-26T10:07:59.571Z,26.09
2022-08-26T10:10:35.010Z,26.20
2022-08-26T10:13:29.585Z,26.30
2022-08-26T10:16:10.840Z,26.46
2022-08-26T10:18:43.458Z,26.55
2022-08-26T10:21:18.026Z,26.67
2022-08-26T10:23:51.435Z,26.78
2022-08-26T10:26:32.711Z,26.89
2022-08-26T10:29:08.774Z,26.98
2022-08-26T10:31:43.971Z,27.07
2022-08-26T10:34:12.518Z,27.14
2022-08-26T10:37:15.453Z,27.27
2022-08-26T10:40:02.548Z,27.28
2022-08-26T10:42:43.014Z,27.38
2022-08-26T10:45:14.985Z,27.41
2022-08-26T10:47:51.815Z,27.50
2022-08-26T10:50:19.739Z,27.59
2022-08-26T10:52:50.060Z,27.67
2022-08-26T10:55:24.244Z,27.62
2022-08-26T10:58:26.405Z,27.65
2022-08-26T11:01:23.064Z,27.78
2022-08-26T11:04:12.048Z,27.90
2022-08-26T11:06:39.158Z,27.99
2022-08-26T11:09:08.884Z,28.01
2022-08-26T11:11:41.115Z,28.06
2022-08-26T11:14:10.111Z,28.17
2022-08-26T11:16:52.531Z,28.28
2022-08-26T11:19:59.703Z,28.28
2022-08-26T11:22:38.036Z,28.35
2022-08-26T11:25:19.992Z,28.38
2022-08-26T11:27:50.626Z,28.46
2022-08-26T11:30:19.497Z,28.54
2022-08-26T11:32:52.262Z,28.62
2022-08-26T11:35:19.230Z,28.74
2022-08-26T11:37:48.279Z,28.75
2022-08-26T11:40:20.557Z,28.70
2022-08-26T11:42:55.477Z,28.62
2022-08-26T11:45:32.549Z,28.50
2022-08-26T11:47:58.944Z,28.48
2022-08-26T11:50:28.216Z,28.41
2022-08-26T11:53:04.134Z,28.47
2022-08-26T11:55:36.430Z,28.62
2022-08-26T11:58:05.729Z,28.76
2022-08-26T12:00:48.590Z,28.87
2022-08-26T12:03:19.244Z,28.97
2022-08-26T12:05:49.075Z,29.03
2022-08-26T12:08:21.524Z,29.14
2022-08-26T12:10:48.991Z,29.21
2022-08-26T12:13:23.821Z,29.25
2022-08-26T12:15:55.820Z,29.31
2022-08-26T12:18:29.150Z,29.30
2022-08-26T12:20:59.167Z,29.36
2022-08-26T12:23:41.314Z,29.45
2022-08-26T12:26:28.648Z,29.41
2022-08-26T12:29:02.231Z,29.46
2022-08-26T12:31:42.476Z,29.14
2022-08-26T12:34:18.045Z,28.75
2022-08-26T12:36:55.379Z,28.57
2022-08-26T12:39:30.218Z,28.49
2022-08-26T12:42:01.604Z,28.47
2022-08-26T12:44:53.774Z,28.45
2022-08-26T12:47:42.599Z,28.53
2022-08-26T12:50:20.591Z,28.75
2022-08-26T12:53:11.291Z,28.86
2022-08-26T12:55:43.795Z,28.95
2022-08-26T12:58:16.358Z,28.89
2022-08-26T13:00:51.449Z,28.78
2022-08-26T13:03:45.260Z,28.64
2022-08-26T13:06:16.119Z,28.52
2022-08-26T13:08:48.385Z,28.44
2022-08-26T13:11:20.302Z,28.22
2022-08-26T13:13:53.528Z,28.00
2022-08-26T13:16:21.609Z,27.86
2022-08-26T13:18:51.387Z,27.67
2022-08-26T13:21:21.205Z,27.52
2022-08-26T13:23:49.901Z,27.40
2022-08-26T13:26:16.658Z,27.28
2022-08-26T13:28:43.232Z,27.09
2022-08-26T13:31:14.544Z,27.06
2022-08-26T13:33:43.871Z,27.02
2022-08-26T13:36:12.060Z,26.89
2022-08-26T13:38:38.749Z,26.81
2022-08-26T13:41:05.828Z,26.82
2022-08-26T13:43:32.913Z,26.84
2022-08-26T13:46:01.713Z,26.93
2022-08-26T13:48:28.334Z,27.05
2022-08-26T13:50:54.722Z,27.14
2022-08-26T13:53:21.348Z,27.30
2022-08-26T13:55:47.903Z,27.40
2022-08-26T13:58:14.883Z,27.46
2022-08-26T14:00:41.742Z,27.48
2022-08-26T14:03:13.248Z,27.49
2022-08-26T14:05:40.698Z,27.49
2022-08-26T14:08:07.988Z,27.44
2022-08-26T14:10:35.083Z,27.30
2022-08-26T14:13:01.692Z,27.12
2022-08-26T14:15:28.955Z,26.87
2022-08-26T14:17:55.806Z,26.83
2022-08-26T14:20:29.004Z,26.61
2022-08-26T14:23:13.038Z,26.59
2022-08-26T14:25:42.242Z,26.42
2022-08-26T14:28:08.721Z,26.38
2022-08-26T14:30:36.903Z,26.16
2022-08-26T14:33:03.337Z,26.16
2022-08-26T14:35:30.571Z,26.06
2022-08-26T14:37:57.828Z,26.11
2022-08-26T14:40:29.261Z,26.10
2022-08-26T14:42:55.890Z,26.06
2022-08-26T14:45:27.294Z,26.00
2022-08-26T14:47:56.426Z,25.91
2022-08-26T14:50:25.812Z,25.88
2022-08-26T14:53:10.803Z,25.88
2022-08-26T14:55:40.318Z,25.87
2022-08-26T14:58:06.780Z,25.78
2022-08-26T15:00:33.272Z,25.72
2022-08-26T15:02:59.781Z,25.73
2022-08-26T15:05:26.342Z,25.73
2022-08-26T15:07:52.816Z,25.66
2022-08-26T15:10:19.603Z,25.60
2022-08-26T15:12:46.469Z,25.50
2022-08-26T15:15:16.160Z,25.50
2022-08-26T15:17:43.164Z,25.49
2022-08-26T15:20:11.768Z,25.42
2022-08-26T15:22:39.534Z,25.45
2022-08-26T15:25:06.464Z,25.48
2022-08-26T15:27:33.118Z,25.38
2022-08-26T15:30:06.328Z,25.39
2022-08-26T15:32:32.779Z,25.39
2022-08-26T15:34:59.221Z,25.39
2022-08-26T15:37:25.600Z,25.44
2022-08-26T15:39:52.852Z,25.40
2022-08-26T15:42:20.807Z,25.35
2022-08-26T15:44:47.277Z,25.33
2022-08-26T15:47:13.989Z,25.28
2022-08-26T15:49:41.019Z,25.22
2022-08-26T15:52:07.768Z,25.29
2022-08-26T15:54:35.057Z,25.26
2022-08-26T15:57:02.543Z,25.25
2022-08-26T15:59:32.284Z,25.29
2022-08-26T16:01:59.975Z,25.19
2022-08-26T16:04:26.690Z,25.22
2022-08-26T16:06:53.842Z,25.17
2022-08-26T16:09:26.803Z,25.02
2022-08-26T16:11:54.971Z,25.02
2022-08-26T16:14:22.336Z,25.05
2022-08-26T16:16:49.080Z,25.01
2022-08-26T16:19:15.718Z,24.89
2022-08-26T16:21:42.166Z,24.91
2022-08-26T16:24:08.958Z,24.88
2022-08-26T16:26:37.930Z,24.85
2022-08-26T16:29:08.822Z,24.79
2022-08-26T16:31:35.503Z,24.68
2022-08-26T16:34:01.967Z,24.64
2022-08-26T16:36:28.491Z,24.70
2022-08-26T16:38:56.207Z,24.65
2022-08-26T16:41:24.494Z,24.65
2022-08-26T16:43:50.890Z,24.57
2022-08-26T16:46:18.341Z,24.55
2022-08-26T16:48:45.432Z,24.59
2022-08-26T16:51:13.347Z,24.55
2022-08-26T16:53:39.844Z,24.51
2022-08-26T16:56:06.600Z,24.47
2022-08-26T16:58:32.980Z,24.39
2022-08-26T17:00:59.412Z,24.46
2022-08-26T17:03:25.856Z,24.38
2022-08-26T17:05:52.313Z,24.36
2022-08-26T17:08:24.323Z,24.25
2022-08-26T17:10:55.387Z,24.31
2022-08-26T17:13:31.619Z,24.32
2022-08-26T17:16:04.154Z,24.27
2022-08-26T17:18:30.899Z,24.25
2022-08-26T17:21:01.739Z,24.20
2022-08-26T17:23:28.070Z,24.14
2022-08-26T17:25:54.512Z,24.14
2022-08-26T17:28:20.915Z,24.06
2022-08-26T17:30:47.362Z,24.10
2022-08-26T17:33:13.806Z,24.06
2022-08-26T17:35:43.561Z,24.07
2022-08-26T17:38:10.151Z,24.04
2022-08-26T17:40:36.824Z,24.00
2022-08-26T17:43:03.367Z,23.94
2022-08-26T17:45:29.769Z,23.94
2022-08-26T17:47:57.049Z,23.94
2022-08-26T17:50:23.674Z,23.86
2022-08-26T17:52:50.516Z,23.91
2022-08-26T17:55:18.006Z,23.82
2022-08-26T17:57:53.163Z,23.83
2022-08-26T18:00:23.434Z,23.71
2022-08-26T18:02:49.836Z,23.70
2022-08-26T18:05:17.388Z,23.71
2022-08-26T18:07:44.712Z,23.73
2022-08-26T18:10:14.559Z,23.64
2022-08-26T18:12:41.489Z,23.65
2022-08-26T18:15:10.161Z,23.60
2022-08-26T18:17:37.624Z,23.56
2022-08-26T18:20:04.364Z,23.55
2022-08-26T18:22:30.762Z,23.55
2022-08-26T18:24:58.748Z,23.46
2022-08-26T18:27:26.266Z,23.47
2022-08-26T18:29:52.998Z,23.46
2022-08-26T18:32:19.354Z,23.41
2022-08-26T18:34:45.733Z,23.42
2022-08-26T18:37:14.275Z,23.35
2022-08-26T18:39:41.553Z,23.27
2022-08-26T18:42:08.767Z,23.30
2022-08-26T18:44:35.284Z,23.32
2022-08-26T18:47:01.704Z,23.22
2022-08-26T18:49:28.737Z,23.29
2022-08-26T18:51:55.209Z,23.27
2022-08-26T18:54:21.936Z,23.09
2022-08-26T18:56:48.563Z,23.12
2022-08-26T18:59:14.990Z,22.97
2022-08-26T19:01:42.474Z,23.02
2022-08-26T19:04:15.772Z,23.05
2022-08-26T19:06:43.071Z,23.05
2022-08-26T19:09:11.759Z,23.03
2022-08-26T19:11:42.826Z,22.95
2022-08-26T19:14:13.438Z,22.99
2022-08-26T19:16:42.301Z,23.00
2022-08-26T19:19:08.976Z,23.00
2022-08-26T19:21:37.098Z,23.03
2022-08-26T19:24:06.893Z,23.02
2022-08-26T19:26:33.408Z,23.03
2022-08-26T19:29:00.194Z,22.99
2022-08-26T19:31:27.507Z,22.91
2022-08-26T19:33:54.040Z,23.00
2022-08-26T19:36:23.493Z,22.93
2022-08-26T19:38:50.194Z,22.98
2022-08-26T19:41:20.272Z,22.84
2022-08-26T19:43:47.159Z,22.78
2022-08-26T19:46:22.973Z,22.81
2022-08-26T19:48:54.041Z,22.76
2022-08-26T19:51:28.546Z,22.74
2022-08-26T19:53:57.553Z,22.79
2022-08-26T19:56:24.291Z,22.84
2022-08-26T19:58:51.061Z,22.89
2022-08-26T20:01:18.375Z,22.85
2022-08-26T20:03:45.057Z,22.86
2022-08-26T20:06:13.244Z,22.79
2022-08-26T20:08:41.250Z,22.77
2022-08-26T20:11:11.802Z,22.70
2022-08-26T20:13:39.806Z,22.71
2022-08-26T20:16:06.472Z,22.61
2022-08-26T20:18:51.971Z,22.65
2022-08-26T20:21:27.596Z,22.63
2022-08-26T20:23:57.893Z,22.70
2022-08-26T20:26:25.126Z,22.64
2022-08-26T20:28:51.598Z,22.68
2022-08-26T20:31:19.031Z,22.56
2022-08-26T20:33:46.451Z,22.58
2022-08-26T20:36:14.733Z,22.60
2022-08-26T20:38:41.263Z,22.56
2022-08-26T20:41:07.683Z,22.35
2022-08-26T20:43:34.101Z,22.37
2022-08-26T20:46:00.839Z,22.42
2022-08-26T20:48:27.498Z,22.52
2022-08-26T20:51:01.048Z,22.43
2022-08-26T20:53:29.361Z,22.37
2022-08-26T20:56:00.483Z,22.37
2022-08-26T20:58:26.908Z,22.50
2022-08-26T21:00:53.518Z,22.45
2022-08-26T21:03:19.959Z,22.35
2022-08-26T21:05:47.020Z,22.24
2022-08-26T21:08:13.384Z,22.22
2022-08-26T21:10:39.928Z,22.32
2022-08-26T21:13:07.254Z,22.35
2022-08-26T21:15:35.074Z,22.34
2022-08-26T21:18:01.564Z,22.30
2022-08-26T21:20:27.956Z,22.19
2022-08-26T21:22:54.366Z,22.11
2022-08-26T21:25:20.902Z,22.06
2022-08-26T21:27:47.428Z,22.14
2022-08-26T21:30:15.443Z,22.20
2022-08-26T21:32:42.092Z,22.10
2022-08-26T21:35:09.171Z,22.00
2022-08-26T21:37:35.602Z,22.05
2022-08-26T21:40:03.739Z,22.15
2022-08-26T21:42:33.310Z,21.95
2022-08-26T21:45:00.399Z,22.09
2022-08-26T21:47:27.515Z,22.11
2022-08-26T21:49:54.142Z,22.09
2022-08-26T21:52:21.332Z,22.10
2022-08-26T21:54:49.387Z,22.09
2022-08-26T21:57:16.943Z,22.10
2022-08-26T21:59:43.307Z,22.05
2022-08-26T22:02:10.811Z,21.86
2022-08-26T22:04:37.304Z,21.86
2022-08-26T22:07:04.194Z,21.78
2022-08-26T22:09:31.534Z,21.80
2022-08-26T22:11:58.997Z,21.78
2022-08-26T22:14:30.377Z,21.89
2022-08-26T22:16:58.805Z,21.89
2022-08-26T22:19:26.276Z,21.80
2022-08-26T22:21:54.467Z,21.77
2022-08-26T22:24:23.876Z,21.88
2022-08-26T22:26:51.036Z,21.94
2022-08-26T22:29:18.691Z,21.84
2022-08-26T22:31:45.829Z,21.82
2022-08-26T22:34:19.413Z,21.86
2022-08-26T22:36:47.995Z,21.81
2022-08-26T22:39:18.420Z,21.80
2022-08-26T22:41:48.351Z,21.80
2022-08-26T22:44:16.227Z,21.78
2022-08-26T22:46:43.744Z,21.72
2022-08-26T22:49:15.741Z,21.72
2022-08-26T22:51:43.889Z,21.67
2022-08-26T22:54:10.873Z,21.64
2022-08-26T22:56:40.189Z,21.73
2022-08-26T22:59:07.923Z,21.67
2022-08-26T23:01:38.105Z,21.68
2022-08-26T23:04:06.237Z,21.74
2022-08-26T23:06:35.591Z,21.73
2022-08-26T23:09:02.026Z,21.72
2022-08-26T23:11:28.475Z,21.72
2022-08-26T23:13:55.122Z,21.76
2022-08-26T23:16:21.597Z,21.76
2022-08-26T23:18:48.094Z,21.66
2022-08-26T23:21:15.117Z,21.68
2022-08-26T23:23:41.835Z,21.69
2022-08-26T23:26:08.491Z,21.69
2022-08-26T23:28:36.077Z,21.78
2022-08-26T23:31:02.526Z,21.80
2022-08-26T23:33:48.906Z,21.76
2022-08-26T23:36:18.058Z,21.76
2022-08-26T23:38:48.562Z,21.72
2022-08-26T23:41:19.032Z,21.71
2022-08-26T23:43:45.469Z,21.68
2022-08-26T23:46:12.074Z,21.65
2022-08-26T23:48:38.565Z,21.66
2022-08-26T23:51:23.671Z,21.66
2022-08-26T23:53:50.559Z,21.66
2022-08-26T23:56:17.591Z,21.69
2022-08-26T23:58:44.481Z,21.61
